Montford Hills, NC

10:39 AM EST del 03 Dicembre 2016 (GMT -0500)
One University Heights | | Change Station

Alt. 2136 ft 35.62 °N, 82.57 °W | Updated 6 minutes ago

Clear
Sereno
42.4 °F
Sembra 40 °F
N
4.0
Vento Variabile Vento da NNE
Gusts 11.0 mph

Oggi
Massima -- | Minima -- °F
--% Possibilità di precip.
Ieri
Massima -- | Minima -- °F
Precip. -- in
Pressione 30.30 in
Visibilità 10.0 miglia
Nuvole Sereno
Raffreddamento del vento 40 °F
Punto di rugiada 29 °F
Umidità 59%
Piovosità 0.00 in
Spessore del manto nevoso Non disponibile.
7:23 AM 5:16 PM
Luna crescente, 15% visible
METAR KAVL 031454Z 34012KT 10SM CLR 06/M03 A3029 RMK AO2 SLP258 T00561033 51014
Pressione 30.30 in
Visibilità 10.0 miglia
Nuvole Sereno
Raffreddamento del vento 40 °F
Punto di rugiada 29 °F
Umidità 59%
Piovosità 0.00 in
Spessore del manto nevoso Non disponibile.
7:23 AM 5:16 PM
Luna crescente, 15% visible
METAR KAVL 031454Z 34012KT 10SM CLR 06/M03 A3029 RMK AO2 SLP258 T00561033 51014

10-Day Weather Forecast

Almanac

Astronomia

Dec. 03, 2016 Alba Tramonto
Ora attuale
Crepuscolo civile
Crepuscolo nautico
Crepuscolo astronomico
Luna
Estensione della luce visibile
Lunghezza del giorno
Tomorrow will be .
, % of the Moon is Illuminated

Gli estremi di oggi

State Highs State Lows

Community

WunderPhotos

Upload Photos

1,955,425 foto caricate!

WunderBlog® & News

Nearby

Qualità dell'aria

  Qualità dell'aria Indice AQ Inquinante
Not available.

Profondità neve

Stazione Profondità Altitudine

Attività sismica

Città  Distanza Mag. Data & Ora
Minimo Magnitudo Mostrato è 2.5.

Temperature delle acque costiere

Località Temperatura

Stations

Stazioni meteo nelle vicinanze

Ubicazione della stazione Temp. Raffreddamento del vento Punto di rugiada Umidità Vento Precip. Alt. Aggiornato Tipo
                   

Watches & Warnings

There are currently no watches in effect.